sensor_id;sensor_type;location;lat;lon;timestamp;P1;durP1;ratioP1;P2;durP2;ratioP2
16593;SDS011;8410;52.532;13.336;2024-02-26T00:00:44;13.40;;;10.23;;
16593;SDS011;8410;52.532;13.336;2024-02-26T00:03:13;16.07;;;11.33;;
16593;SDS011;8410;52.532;13.336;2024-02-26T00:05:40;16.20;;;11.13;;
16593;SDS011;8410;52.532;13.336;2024-02-26T00:08:09;17.73;;;9.80;;
16593;SDS011;8410;52.532;13.336;2024-02-26T00:10:37;12.67;;;8.60;;
16593;SDS011;8410;52.532;13.336;2024-02-26T00:13:04;15.60;;;9.57;;
16593;SDS011;8410;52.532;13.336;2024-02-26T00:15:32;15.83;;;10.63;;
16593;SDS011;8410;52.532;13.336;2024-02-26T00:18:01;16.00;;;9.97;;
16593;SDS011;8410;52.532;13.336;2024-02-26T00:20:29;14.60;;;9.33;;
16593;SDS011;8410;52.532;13.336;2024-02-26T00:22:56;16.33;;;9.00;;
16593;SDS011;8410;52.532;13.336;2024-02-26T00:25:25;14.03;;;9.70;;
16593;SDS011;8410;52.532;13.336;2024-02-26T00:27:53;14.00;;;9.33;;
16593;SDS011;8410;52.532;13.336;2024-02-26T00:30:20;16.37;;;11.20;;
16593;SDS011;8410;52.532;13.336;2024-02-26T00:32:48;10.03;;;8.13;;
16593;SDS011;8410;52.532;13.336;2024-02-26T00:35:16;13.40;;;9.37;;
16593;SDS011;8410;52.532;13.336;2024-02-26T00:37:46;12.50;;;8.00;;
16593;SDS011;8410;52.532;13.336;2024-02-26T00:40:14;10.20;;;7.77;;
16593;SDS011;8410;52.532;13.336;2024-02-26T00:42:43;12.63;;;8.33;;
16593;SDS011;8410;52.532;13.336;2024-02-26T00:45:12;13.73;;;9.07;;
16593;SDS011;8410;52.532;13.336;2024-02-26T00:47:40;11.70;;;8.43;;
16593;SDS011;8410;52.532;13.336;2024-02-26T00:50:09;11.43;;;9.00;;
16593;SDS011;8410;52.532;13.336;2024-02-26T00:52:37;12.60;;;9.13;;
16593;SDS011;8410;52.532;13.336;2024-02-26T00:55:05;12.23;;;9.27;;
16593;SDS011;8410;52.532;13.336;2024-02-26T00:57:33;14.57;;;8.93;;
16593;SDS011;8410;52.532;13.336;2024-02-26T01:00:03;13.63;;;9.97;;
16593;SDS011;8410;52.532;13.336;2024-02-26T01:02:31;14.33;;;10.20;;
16593;SDS011;8410;52.532;13.336;2024-02-26T01:04:58;14.63;;;10.53;;
16593;SDS011;8410;52.532;13.336;2024-02-26T01:07:26;13.10;;;10.80;;
16593;SDS011;8410;52.532;13.336;2024-02-26T01:09:54;13.63;;;10.57;;
16593;SDS011;8410;52.532;13.336;2024-02-26T01:12:21;12.67;;;10.23;;
16593;SDS011;8410;52.532;13.336;2024-02-26T01:14:49;14.63;;;10.27;;
16593;SDS011;8410;52.532;13.336;2024-02-26T01:17:17;15.23;;;10.10;;
16593;SDS011;8410;52.532;13.336;2024-02-26T01:19:45;13.43;;;10.07;;
16593;SDS011;8410;52.532;13.336;2024-02-26T01:22:13;13.37;;;10.07;;
16593;SDS011;8410;52.532;13.336;2024-02-26T01:24:40;16.90;;;12.07;;
16593;SDS011;8410;52.532;13.336;2024-02-26T01:27:08;14.57;;;10.40;;
16593;SDS011;8410;52.532;13.336;2024-02-26T01:29:35;14.70;;;9.90;;
16593;SDS011;8410;52.532;13.336;2024-02-26T01:32:03;13.93;;;9.93;;
16593;SDS011;8410;52.532;13.336;2024-02-26T01:34:33;12.10;;;9.80;;
16593;SDS011;8410;52.532;13.336;2024-02-26T01:37:03;15.27;;;10.73;;
16593;SDS011;8410;52.532;13.336;2024-02-26T01:39:31;17.53;;;11.20;;
16593;SDS011;8410;52.532;13.336;2024-02-26T01:41:58;14.83;;;11.03;;
16593;SDS011;8410;52.532;13.336;2024-02-26T01:44:26;14.63;;;10.90;;
16593;SDS011;8410;52.532;13.336;2024-02-26T01:46:54;14.97;;;10.37;;
16593;SDS011;8410;52.532;13.336;2024-02-26T01:49:22;12.27;;;10.13;;
16593;SDS011;8410;52.532;13.336;2024-02-26T01:51:51;14.00;;;10.60;;
16593;SDS011;8410;52.532;13.336;2024-02-26T01:54:19;14.20;;;10.60;;
16593;SDS011;8410;52.532;13.336;2024-02-26T01:56:46;14.83;;;10.27;;
16593;SDS011;8410;52.532;13.336;2024-02-26T01:59:14;17.33;;;11.03;;
16593;SDS011;8410;52.532;13.336;2024-02-26T02:01:42;18.83;;;11.43;;
16593;SDS011;8410;52.532;13.336;2024-02-26T02:04:12;14.80;;;11.57;;
16593;SDS011;8410;52.532;13.336;2024-02-26T02:06:40;11.40;;;9.47;;
16593;SDS011;8410;52.532;13.336;2024-02-26T02:09:11;13.17;;;10.60;;
16593;SDS011;8410;52.532;13.336;2024-02-26T02:11:38;16.40;;;10.90;;
16593;SDS011;8410;52.532;13.336;2024-02-26T02:14:06;14.10;;;11.57;;
16593;SDS011;8410;52.532;13.336;2024-02-26T02:16:34;13.80;;;11.33;;
16593;SDS011;8410;52.532;13.336;2024-02-26T02:19:01;15.23;;;11.23;;
16593;SDS011;8410;52.532;13.336;2024-02-26T02:21:30;14.13;;;11.33;;
16593;SDS011;8410;52.532;13.336;2024-02-26T02:23:58;15.00;;;11.13;;
16593;SDS011;8410;52.532;13.336;2024-02-26T02:26:25;16.10;;;11.50;;
16593;SDS011;8410;52.532;13.336;2024-02-26T02:28:53;14.73;;;11.37;;
16593;SDS011;8410;52.532;13.336;2024-02-26T02:31:21;14.33;;;11.23;;
16593;SDS011;8410;52.532;13.336;2024-02-26T02:33:48;13.40;;;11.33;;
16593;SDS011;8410;52.532;13.336;2024-02-26T02:36:16;13.17;;;11.43;;
16593;SDS011;8410;52.532;13.336;2024-02-26T02:38:49;13.53;;;10.80;;
16593;SDS011;8410;52.532;13.336;2024-02-26T02:41:18;15.23;;;10.70;;
16593;SDS011;8410;52.532;13.336;2024-02-26T02:43:45;12.40;;;10.87;;
16593;SDS011;8410;52.532;13.336;2024-02-26T02:46:13;14.37;;;10.60;;
16593;SDS011;8410;52.532;13.336;2024-02-26T02:48:41;12.33;;;10.37;;
16593;SDS011;8410;52.532;13.336;2024-02-26T02:51:09;12.90;;;10.07;;
16593;SDS011;8410;52.532;13.336;2024-02-26T02:53:37;13.67;;;9.87;;
16593;SDS011;8410;52.532;13.336;2024-02-26T02:56:06;12.33;;;9.80;;
16593;SDS011;8410;52.532;13.336;2024-02-26T02:58:33;13.13;;;10.53;;
16593;SDS011;8410;52.532;13.336;2024-02-26T03:01:01;11.37;;;9.83;;
16593;SDS011;8410;52.532;13.336;2024-02-26T03:03:29;14.07;;;10.60;;
16593;SDS011;8410;52.532;13.336;2024-02-26T03:05:57;12.03;;;9.80;;
16593;SDS011;8410;52.532;13.336;2024-02-26T03:08:24;12.80;;;10.17;;
16593;SDS011;8410;52.532;13.336;2024-02-26T03:10:52;13.87;;;11.53;;
16593;SDS011;8410;52.532;13.336;2024-02-26T03:13:21;10.73;;;9.50;;
16593;SDS011;8410;52.532;13.336;2024-02-26T03:15:49;12.23;;;9.60;;
16593;SDS011;8410;52.532;13.336;2024-02-26T03:18:16;11.53;;;9.90;;
16593;SDS011;8410;52.532;13.336;2024-02-26T03:20:44;15.10;;;11.17;;
16593;SDS011;8410;52.532;13.336;2024-02-26T03:23:11;14.03;;;10.60;;
16593;SDS011;8410;52.532;13.336;2024-02-26T03:25:41;14.30;;;10.13;;
16593;SDS011;8410;52.532;13.336;2024-02-26T03:28:09;11.53;;;9.80;;
16593;SDS011;8410;52.532;13.336;2024-02-26T03:30:38;12.20;;;9.60;;
16593;SDS011;8410;52.532;13.336;2024-02-26T03:33:05;12.67;;;10.30;;
16593;SDS011;8410;52.532;13.336;2024-02-26T03:35:33;10.07;;;8.97;;
16593;SDS011;8410;52.532;13.336;2024-02-26T03:38:01;13.93;;;9.33;;
16593;SDS011;8410;52.532;13.336;2024-02-26T03:40:29;12.17;;;9.57;;
16593;SDS011;8410;52.532;13.336;2024-02-26T03:42:56;11.27;;;8.47;;
16593;SDS011;8410;52.532;13.336;2024-02-26T03:45:24;9.90;;;7.43;;
16593;SDS011;8410;52.532;13.336;2024-02-26T03:47:53;8.73;;;7.23;;
16593;SDS011;8410;52.532;13.336;2024-02-26T03:50:21;8.57;;;7.67;;
16593;SDS011;8410;52.532;13.336;2024-02-26T03:52:49;9.77;;;7.50;;
16593;SDS011;8410;52.532;13.336;2024-02-26T03:55:17;7.07;;;6.43;;
16593;SDS011;8410;52.532;13.336;2024-02-26T03:57:47;8.07;;;7.07;;
16593;SDS011;8410;52.532;13.336;2024-02-26T04:00:15;7.93;;;7.13;;
16593;SDS011;8410;52.532;13.336;2024-02-26T04:02:43;8.03;;;7.33;;
16593;SDS011;8410;52.532;13.336;2024-02-26T04:05:12;7.37;;;6.70;;
16593;SDS011;8410;52.532;13.336;2024-02-26T04:07:41;9.07;;;6.93;;
16593;SDS011;8410;52.532;13.336;2024-02-26T04:10:08;9.80;;;7.73;;
16593;SDS011;8410;52.532;13.336;2024-02-26T04:12:38;8.27;;;7.33;;
16593;SDS011;8410;52.532;13.336;2024-02-26T04:15:06;9.90;;;7.53;;
16593;SDS011;8410;52.532;13.336;2024-02-26T04:17:34;8.80;;;7.50;;
16593;SDS011;8410;52.532;13.336;2024-02-26T04:20:03;9.70;;;7.87;;
16593;SDS011;8410;52.532;13.336;2024-02-26T04:22:33;9.53;;;7.33;;
16593;SDS011;8410;52.532;13.336;2024-02-26T04:25:00;9.57;;;7.93;;
16593;SDS011;8410;52.532;13.336;2024-02-26T04:27:29;9.43;;;7.80;;
16593;SDS011;8410;52.532;13.336;2024-02-26T04:29:56;9.63;;;8.17;;
16593;SDS011;8410;52.532;13.336;2024-02-26T04:32:24;9.20;;;8.30;;
16593;SDS011;8410;52.532;13.336;2024-02-26T04:34:52;8.83;;;7.93;;
16593;SDS011;8410;52.532;13.336;2024-02-26T04:37:19;12.93;;;8.90;;
16593;SDS011;8410;52.532;13.336;2024-02-26T04:39:48;10.30;;;9.20;;
16593;SDS011;8410;52.532;13.336;2024-02-26T04:42:16;10.13;;;8.97;;
16593;SDS011;8410;52.532;13.336;2024-02-26T04:44:44;10.37;;;9.37;;
16593;SDS011;8410;52.532;13.336;2024-02-26T04:47:12;10.40;;;9.03;;
16593;SDS011;8410;52.532;13.336;2024-02-26T04:49:40;10.30;;;8.83;;
16593;SDS011;8410;52.532;13.336;2024-02-26T04:52:07;10.13;;;9.13;;
16593;SDS011;8410;52.532;13.336;2024-02-26T04:54:35;12.53;;;9.20;;
16593;SDS011;8410;52.532;13.336;2024-02-26T04:57:04;12.37;;;9.17;;
16593;SDS011;8410;52.532;13.336;2024-02-26T04:59:32;11.03;;;9.90;;
16593;SDS011;8410;52.532;13.336;2024-02-26T05:01:59;13.47;;;9.97;;
16593;SDS011;8410;52.532;13.336;2024-02-26T05:04:27;12.93;;;9.73;;
16593;SDS011;8410;52.532;13.336;2024-02-26T05:06:54;10.60;;;9.57;;
16593;SDS011;8410;52.532;13.336;2024-02-26T05:09:23;12.20;;;10.13;;
16593;SDS011;8410;52.532;13.336;2024-02-26T05:11:50;13.00;;;9.97;;
16593;SDS011;8410;52.532;13.336;2024-02-26T05:14:19;10.07;;;9.07;;
16593;SDS011;8410;52.532;13.336;2024-02-26T05:16:47;13.67;;;8.90;;
16593;SDS011;8410;52.532;13.336;2024-02-26T05:19:15;10.73;;;9.63;;
16593;SDS011;8410;52.532;13.336;2024-02-26T05:21:43;13.40;;;10.03;;
16593;SDS011;8410;52.532;13.336;2024-02-26T05:24:10;12.67;;;9.47;;
16593;SDS011;8410;52.532;13.336;2024-02-26T05:26:38;12.73;;;11.43;;
16593;SDS011;8410;52.532;13.336;2024-02-26T05:29:05;11.97;;;10.33;;
16593;SDS011;8410;52.532;13.336;2024-02-26T05:31:34;13.73;;;10.03;;
16593;SDS011;8410;52.532;13.336;2024-02-26T05:34:02;11.90;;;10.10;;
16593;SDS011;8410;52.532;13.336;2024-02-26T05:36:30;12.00;;;10.70;;
16593;SDS011;8410;52.532;13.336;2024-02-26T05:38:59;13.77;;;10.93;;
16593;SDS011;8410;52.532;13.336;2024-02-26T05:41:27;11.07;;;9.97;;
16593;SDS011;8410;52.532;13.336;2024-02-26T05:43:55;15.53;;;11.03;;
16593;SDS011;8410;52.532;13.336;2024-02-26T05:46:22;13.87;;;10.97;;
16593;SDS011;8410;52.532;13.336;2024-02-26T05:48:52;12.47;;;11.17;;
16593;SDS011;8410;52.532;13.336;2024-02-26T05:51:21;13.53;;;10.83;;
16593;SDS011;8410;52.532;13.336;2024-02-26T05:53:48;12.93;;;11.63;;
16593;SDS011;8410;52.532;13.336;2024-02-26T05:56:21;15.40;;;11.90;;
16593;SDS011;8410;52.532;13.336;2024-02-26T05:58:48;12.50;;;11.20;;
16593;SDS011;8410;52.532;13.336;2024-02-26T06:01:16;14.53;;;13.13;;
16593;SDS011;8410;52.532;13.336;2024-02-26T06:03:44;15.63;;;13.03;;
16593;SDS011;8410;52.532;13.336;2024-02-26T06:06:13;15.50;;;12.33;;
16593;SDS011;8410;52.532;13.336;2024-02-26T06:08:42;15.03;;;12.43;;
16593;SDS011;8410;52.532;13.336;2024-02-26T06:11:09;15.67;;;14.17;;
16593;SDS011;8410;52.532;13.336;2024-02-26T06:13:37;16.20;;;14.10;;
16593;SDS011;8410;52.532;13.336;2024-02-26T06:16:05;16.43;;;13.43;;
16593;SDS011;8410;52.532;13.336;2024-02-26T06:18:32;15.10;;;12.57;;
16593;SDS011;8410;52.532;13.336;2024-02-26T06:21:01;15.73;;;13.30;;
16593;SDS011;8410;52.532;13.336;2024-02-26T06:23:30;18.40;;;14.77;;
16593;SDS011;8410;52.532;13.336;2024-02-26T06:25:57;15.27;;;13.63;;
16593;SDS011;8410;52.532;13.336;2024-02-26T06:28:25;15.37;;;13.70;;
16593;SDS011;8410;52.532;13.336;2024-02-26T06:30:52;20.40;;;15.10;;
16593;SDS011;8410;52.532;13.336;2024-02-26T06:33:20;18.80;;;13.83;;
16593;SDS011;8410;52.532;13.336;2024-02-26T06:35:48;19.63;;;14.00;;
16593;SDS011;8410;52.532;13.336;2024-02-26T06:38:15;15.47;;;13.93;;
16593;SDS011;8410;52.532;13.336;2024-02-26T06:40:45;16.30;;;13.87;;
16593;SDS011;8410;52.532;13.336;2024-02-26T06:43:13;16.10;;;13.33;;
16593;SDS011;8410;52.532;13.336;2024-02-26T06:45:40;16.07;;;14.43;;
16593;SDS011;8410;52.532;13.336;2024-02-26T06:48:08;16.77;;;14.63;;
16593;SDS011;8410;52.532;13.336;2024-02-26T06:50:36;15.87;;;14.17;;
16593;SDS011;8410;52.532;13.336;2024-02-26T06:53:04;14.17;;;12.47;;
16593;SDS011;8410;52.532;13.336;2024-02-26T06:55:33;16.30;;;13.20;;
16593;SDS011;8410;52.532;13.336;2024-02-26T06:58:02;16.90;;;13.77;;
16593;SDS011;8410;52.532;13.336;2024-02-26T07:00:29;20.43;;;14.63;;
16593;SDS011;8410;52.532;13.336;2024-02-26T07:02:57;16.40;;;14.70;;
16593;SDS011;8410;52.532;13.336;2024-02-26T07:05:25;22.80;;;15.83;;
16593;SDS011;8410;52.532;13.336;2024-02-26T07:07:52;18.53;;;15.73;;
16593;SDS011;8410;52.532;13.336;2024-02-26T07:10:20;21.33;;;15.90;;
16593;SDS011;8410;52.532;13.336;2024-02-26T07:12:47;17.57;;;13.13;;
16593;SDS011;8410;52.532;13.336;2024-02-26T07:15:16;16.87;;;15.07;;
16593;SDS011;8410;52.532;13.336;2024-02-26T07:17:45;19.13;;;16.13;;
16593;SDS011;8410;52.532;13.336;2024-02-26T07:20:14;18.80;;;15.27;;
16593;SDS011;8410;52.532;13.336;2024-02-26T07:22:44;15.00;;;13.50;;
16593;SDS011;8410;52.532;13.336;2024-02-26T07:25:11;18.80;;;16.80;;
16593;SDS011;8410;52.532;13.336;2024-02-26T07:27:40;16.10;;;14.30;;
16593;SDS011;8410;52.532;13.336;2024-02-26T07:30:08;17.30;;;15.47;;
16593;SDS011;8410;52.532;13.336;2024-02-26T07:32:37;18.47;;;16.27;;
16593;SDS011;8410;52.532;13.336;2024-02-26T07:35:05;21.00;;;15.80;;
16593;SDS011;8410;52.532;13.336;2024-02-26T07:37:33;19.57;;;15.73;;
16593;SDS011;8410;52.532;13.336;2024-02-26T07:40:00;17.97;;;16.03;;
16593;SDS011;8410;52.532;13.336;2024-02-26T07:42:29;25.83;;;17.90;;
16593;SDS011;8410;52.532;13.336;2024-02-26T07:44:57;21.30;;;15.57;;
16593;SDS011;8410;52.532;13.336;2024-02-26T07:47:25;19.57;;;16.40;;
16593;SDS011;8410;52.532;13.336;2024-02-26T07:49:53;19.20;;;17.20;;
16593;SDS011;8410;52.532;13.336;2024-02-26T07:52:21;20.40;;;17.43;;
16593;SDS011;8410;52.532;13.336;2024-02-26T07:54:49;18.73;;;16.77;;
16593;SDS011;8410;52.532;13.336;2024-02-26T07:57:16;20.90;;;18.70;;
16593;SDS011;8410;52.532;13.336;2024-02-26T07:59:44;19.50;;;17.40;;
16593;SDS011;8410;52.532;13.336;2024-02-26T08:02:16;16.90;;;15.03;;
16593;SDS011;8410;52.532;13.336;2024-02-26T08:04:43;19.70;;;17.63;;
16593;SDS011;8410;52.532;13.336;2024-02-26T08:07:12;21.17;;;16.70;;
16593;SDS011;8410;52.532;13.336;2024-02-26T08:09:41;17.30;;;14.97;;
16593;SDS011;8410;52.532;13.336;2024-02-26T08:12:09;19.47;;;17.43;;
16593;SDS011;8410;52.532;13.336;2024-02-26T08:14:36;22.47;;;16.47;;
16593;SDS011;8410;52.532;13.336;2024-02-26T08:17:04;18.30;;;15.37;;
16593;SDS011;8410;52.532;13.336;2024-02-26T08:19:31;18.60;;;16.70;;
16593;SDS011;8410;52.532;13.336;2024-02-26T08:22:02;17.90;;;16.00;;
16593;SDS011;8410;52.532;13.336;2024-02-26T08:24:31;17.47;;;15.60;;
16593;SDS011;8410;52.532;13.336;2024-02-26T08:26:59;19.20;;;17.30;;
16593;SDS011;8410;52.532;13.336;2024-02-26T08:29:27;19.33;;;16.20;;
16593;SDS011;8410;52.532;13.336;2024-02-26T08:31:54;16.77;;;14.83;;
16593;SDS011;8410;52.532;13.336;2024-02-26T08:34:22;18.17;;;16.43;;
16593;SDS011;8410;52.532;13.336;2024-02-26T08:36:50;17.70;;;15.73;;
16593;SDS011;8410;52.532;13.336;2024-02-26T08:39:17;21.70;;;17.97;;
16593;SDS011;8410;52.532;13.336;2024-02-26T08:41:46;16.90;;;15.10;;
16593;SDS011;8410;52.532;13.336;2024-02-26T08:44:14;19.87;;;17.07;;
16593;SDS011;8410;52.532;13.336;2024-02-26T08:46:42;18.37;;;15.97;;
16593;SDS011;8410;52.532;13.336;2024-02-26T08:49:10;20.60;;;16.90;;
16593;SDS011;8410;52.532;13.336;2024-02-26T08:51:40;20.20;;;18.10;;
16593;SDS011;8410;52.532;13.336;2024-02-26T08:54:08;19.73;;;17.73;;
16593;SDS011;8410;52.532;13.336;2024-02-26T08:56:36;19.30;;;17.17;;
16593;SDS011;8410;52.532;13.336;2024-02-26T08:59:05;19.17;;;16.53;;
16593;SDS011;8410;52.532;13.336;2024-02-26T09:01:33;17.87;;;16.07;;
16593;SDS011;8410;52.532;13.336;2024-02-26T09:04:01;20.97;;;16.47;;
16593;SDS011;8410;52.532;13.336;2024-02-26T09:06:28;21.80;;;15.10;;
16593;SDS011;8410;52.532;13.336;2024-02-26T09:08:56;16.47;;;14.60;;
16593;SDS011;8410;52.532;13.336;2024-02-26T09:11:27;19.43;;;16.97;;
16593;SDS011;8410;52.532;13.336;2024-02-26T09:13:55;18.43;;;16.20;;
16593;SDS011;8410;52.532;13.336;2024-02-26T09:16:24;20.57;;;15.60;;
16593;SDS011;8410;52.532;13.336;2024-02-26T09:18:51;19.60;;;16.27;;
16593;SDS011;8410;52.532;13.336;2024-02-26T09:21:19;17.27;;;15.33;;
16593;SDS011;8410;52.532;13.336;2024-02-26T09:23:50;18.37;;;15.00;;
16593;SDS011;8410;52.532;13.336;2024-02-26T09:26:18;19.80;;;14.83;;
16593;SDS011;8410;52.532;13.336;2024-02-26T09:28:45;17.43;;;14.53;;
16593;SDS011;8410;52.532;13.336;2024-02-26T09:31:13;18.23;;;16.10;;
16593;SDS011;8410;52.532;13.336;2024-02-26T09:33:44;18.60;;;16.53;;
16593;SDS011;8410;52.532;13.336;2024-02-26T09:36:12;19.43;;;16.53;;
16593;SDS011;8410;52.532;13.336;2024-02-26T09:38:40;16.00;;;13.73;;
16593;SDS011;8410;52.532;13.336;2024-02-26T09:41:21;15.60;;;13.97;;
16593;SDS011;8410;52.532;13.336;2024-02-26T09:43:49;16.43;;;14.63;;
16593;SDS011;8410;52.532;13.336;2024-02-26T09:46:23;17.20;;;15.37;;
16593;SDS011;8410;52.532;13.336;2024-02-26T09:48:52;16.07;;;14.37;;
16593;SDS011;8410;52.532;13.336;2024-02-26T09:51:20;18.47;;;14.27;;
16593;SDS011;8410;52.532;13.336;2024-02-26T09:53:51;17.77;;;15.30;;
16593;SDS011;8410;52.532;13.336;2024-02-26T09:56:20;18.43;;;15.20;;
16593;SDS011;8410;52.532;13.336;2024-02-26T09:58:48;17.00;;;14.53;;
16593;SDS011;8410;52.532;13.336;2024-02-26T10:01:20;16.07;;;13.00;;
16593;SDS011;8410;52.532;13.336;2024-02-26T10:03:54;18.20;;;16.40;;
16593;SDS011;8410;52.532;13.336;2024-02-26T10:06:24;16.27;;;14.60;;
16593;SDS011;8410;52.532;13.336;2024-02-26T10:08:54;16.73;;;13.63;;
16593;SDS011;8410;52.532;13.336;2024-02-26T10:11:25;15.87;;;14.27;;
16593;SDS011;8410;52.532;13.336;2024-02-26T10:13:54;14.00;;;12.60;;
16593;SDS011;8410;52.532;13.336;2024-02-26T10:16:21;15.17;;;13.20;;
16593;SDS011;8410;52.532;13.336;2024-02-26T10:18:50;14.90;;;13.30;;
16593;SDS011;8410;52.532;13.336;2024-02-26T10:21:23;16.37;;;13.90;;
16593;SDS011;8410;52.532;13.336;2024-02-26T10:23:49;18.90;;;16.90;;
16593;SDS011;8410;52.532;13.336;2024-02-26T10:26:17;16.97;;;13.67;;
16593;SDS011;8410;52.532;13.336;2024-02-26T10:28:46;15.37;;;13.53;;
16593;SDS011;8410;52.532;13.336;2024-02-26T10:31:20;20.67;;;12.53;;
16593;SDS011;8410;52.532;13.336;2024-02-26T10:33:47;14.10;;;12.63;;
16593;SDS011;8410;52.532;13.336;2024-02-26T10:36:16;15.67;;;13.53;;
16593;SDS011;8410;52.532;13.336;2024-02-26T10:38:45;14.10;;;12.43;;
16593;SDS011;8410;52.532;13.336;2024-02-26T10:41:13;13.87;;;12.33;;
16593;SDS011;8410;52.532;13.336;2024-02-26T10:43:42;13.63;;;11.67;;
16593;SDS011;8410;52.532;13.336;2024-02-26T10:46:09;12.67;;;10.97;;
16593;SDS011;8410;52.532;13.336;2024-02-26T10:48:38;13.47;;;10.53;;
16593;SDS011;8410;52.532;13.336;2024-02-26T10:51:06;11.77;;;10.57;;
16593;SDS011;8410;52.532;13.336;2024-02-26T10:53:40;12.50;;;11.20;;
16593;SDS011;8410;52.532;13.336;2024-02-26T10:56:11;11.83;;;10.63;;
16593;SDS011;8410;52.532;13.336;2024-02-26T10:58:43;14.47;;;11.13;;
16593;SDS011;8410;52.532;13.336;2024-02-26T11:01:13;11.20;;;9.97;;
16593;SDS011;8410;52.532;13.336;2024-02-26T11:03:41;11.60;;;9.57;;
16593;SDS011;8410;52.532;13.336;2024-02-26T11:06:10;13.23;;;9.73;;
16593;SDS011;8410;52.532;13.336;2024-02-26T11:08:39;14.33;;;9.37;;
16593;SDS011;8410;52.532;13.336;2024-02-26T11:11:08;13.47;;;11.00;;
16593;SDS011;8410;52.532;13.336;2024-02-26T11:13:40;12.20;;;10.17;;
16593;SDS011;8410;52.532;13.336;2024-02-26T11:16:11;11.50;;;9.73;;
16593;SDS011;8410;52.532;13.336;2024-02-26T11:18:39;12.30;;;10.83;;
16593;SDS011;8410;52.532;13.336;2024-02-26T11:21:08;12.07;;;10.83;;
16593;SDS011;8410;52.532;13.336;2024-02-26T11:23:37;13.67;;;11.27;;
16593;SDS011;8410;52.532;13.336;2024-02-26T11:26:06;11.00;;;9.90;;
16593;SDS011;8410;52.532;13.336;2024-02-26T11:28:37;11.17;;;9.47;;
16593;SDS011;8410;52.532;13.336;2024-02-26T11:31:07;11.07;;;8.67;;
16593;SDS011;8410;52.532;13.336;2024-02-26T11:33:35;13.67;;;10.77;;
16593;SDS011;8410;52.532;13.336;2024-02-26T11:36:07;12.73;;;9.07;;
16593;SDS011;8410;52.532;13.336;2024-02-26T11:38:35;15.60;;;10.90;;
16593;SDS011;8410;52.532;13.336;2024-02-26T11:41:04;12.53;;;11.23;;
16593;SDS011;8410;52.532;13.336;2024-02-26T11:43:49;11.47;;;10.37;;
16593;SDS011;8410;52.532;13.336;2024-02-26T11:46:28;12.10;;;10.80;;
16593;SDS011;8410;52.532;13.336;2024-02-26T11:49:00;11.80;;;10.60;;
16593;SDS011;8410;52.532;13.336;2024-02-26T11:51:32;15.90;;;12.30;;
16593;SDS011;8410;52.532;13.336;2024-02-26T11:54:00;14.00;;;12.60;;
16593;SDS011;8410;52.532;13.336;2024-02-26T11:56:28;12.77;;;11.07;;
16593;SDS011;8410;52.532;13.336;2024-02-26T11:59:01;11.93;;;10.73;;
16593;SDS011;8410;52.532;13.336;2024-02-26T12:01:45;14.20;;;12.73;;
16593;SDS011;8410;52.532;13.336;2024-02-26T12:04:18;11.73;;;9.77;;
16593;SDS011;8410;52.532;13.336;2024-02-26T12:06:50;12.40;;;10.80;;
16593;SDS011;8410;52.532;13.336;2024-02-26T12:09:31;13.07;;;11.00;;
16593;SDS011;8410;52.532;13.336;2024-02-26T12:12:01;12.47;;;11.17;;
16593;SDS011;8410;52.532;13.336;2024-02-26T12:14:29;12.80;;;11.60;;
16593;SDS011;8410;52.532;13.336;2024-02-26T12:17:01;12.33;;;11.03;;
16593;SDS011;8410;52.532;13.336;2024-02-26T12:19:33;13.50;;;11.93;;
16593;SDS011;8410;52.532;13.336;2024-02-26T12:22:03;12.53;;;11.00;;
16593;SDS011;8410;52.532;13.336;2024-02-26T12:24:33;12.43;;;11.13;;
16593;SDS011;8410;52.532;13.336;2024-02-26T12:27:01;10.97;;;9.83;;
16593;SDS011;8410;52.532;13.336;2024-02-26T12:29:29;10.13;;;8.93;;
16593;SDS011;8410;52.532;13.336;2024-02-26T12:31:57;9.70;;;8.77;;
16593;SDS011;8410;52.532;13.336;2024-02-26T12:34:26;10.27;;;8.77;;
16593;SDS011;8410;52.532;13.336;2024-02-26T12:36:54;9.77;;;8.77;;
16593;SDS011;8410;52.532;13.336;2024-02-26T12:39:22;13.37;;;10.17;;
16593;SDS011;8410;52.532;13.336;2024-02-26T12:41:49;12.20;;;10.07;;
16593;SDS011;8410;52.532;13.336;2024-02-26T12:44:17;10.03;;;8.80;;
16593;SDS011;8410;52.532;13.336;2024-02-26T12:46:44;9.90;;;8.90;;
16593;SDS011;8410;52.532;13.336;2024-02-26T12:49:14;8.70;;;7.27;;
16593;SDS011;8410;52.532;13.336;2024-02-26T12:51:45;12.70;;;8.70;;
16593;SDS011;8410;52.532;13.336;2024-02-26T12:54:14;7.53;;;6.77;;
16593;SDS011;8410;52.532;13.336;2024-02-26T12:56:42;8.00;;;7.20;;
16593;SDS011;8410;52.532;13.336;2024-02-26T12:59:09;7.43;;;6.70;;
16593;SDS011;8410;52.532;13.336;2024-02-26T13:01:37;7.13;;;5.83;;
16593;SDS011;8410;52.532;13.336;2024-02-26T13:04:05;6.40;;;5.13;;
16593;SDS011;8410;52.532;13.336;2024-02-26T13:06:33;9.20;;;6.40;;
16593;SDS011;8410;52.532;13.336;2024-02-26T13:09:02;9.63;;;5.83;;
16593;SDS011;8410;52.532;13.336;2024-02-26T13:11:30;7.30;;;6.10;;
16593;SDS011;8410;52.532;13.336;2024-02-26T13:13:59;5.77;;;5.23;;
16593;SDS011;8410;52.532;13.336;2024-02-26T13:16:26;5.50;;;4.83;;
16593;SDS011;8410;52.532;13.336;2024-02-26T13:18:54;7.13;;;6.13;;
16593;SDS011;8410;52.532;13.336;2024-02-26T13:21:22;6.70;;;5.10;;
16593;SDS011;8410;52.532;13.336;2024-02-26T13:23:52;6.43;;;5.70;;
16593;SDS011;8410;52.532;13.336;2024-02-26T13:26:22;6.17;;;5.30;;
16593;SDS011;8410;52.532;13.336;2024-02-26T13:29:00;5.77;;;5.17;;
16593;SDS011;8410;52.532;13.336;2024-02-26T13:31:29;6.70;;;5.37;;
16593;SDS011;8410;52.532;13.336;2024-02-26T13:33:57;9.80;;;4.67;;
16593;SDS011;8410;52.532;13.336;2024-02-26T13:36:25;4.90;;;3.97;;
16593;SDS011;8410;52.532;13.336;2024-02-26T13:38:53;5.23;;;4.73;;
16593;SDS011;8410;52.532;13.336;2024-02-26T13:41:23;4.83;;;4.00;;
16593;SDS011;8410;52.532;13.336;2024-02-26T13:43:50;4.87;;;4.07;;
16593;SDS011;8410;52.532;13.336;2024-02-26T13:46:18;4.70;;;3.63;;
16593;SDS011;8410;52.532;13.336;2024-02-26T13:48:45;5.27;;;4.13;;
16593;SDS011;8410;52.532;13.336;2024-02-26T13:51:13;5.90;;;4.53;;
16593;SDS011;8410;52.532;13.336;2024-02-26T13:53:43;5.13;;;3.67;;
16593;SDS011;8410;52.532;13.336;2024-02-26T13:56:10;5.83;;;4.40;;
16593;SDS011;8410;52.532;13.336;2024-02-26T13:58:39;4.73;;;4.03;;
16593;SDS011;8410;52.532;13.336;2024-02-26T14:01:07;8.43;;;5.40;;
16593;SDS011;8410;52.532;13.336;2024-02-26T14:03:35;4.90;;;4.40;;
16593;SDS011;8410;52.532;13.336;2024-02-26T14:06:02;5.13;;;4.00;;
16593;SDS011;8410;52.532;13.336;2024-02-26T14:08:31;5.43;;;4.37;;
16593;SDS011;8410;52.532;13.336;2024-02-26T14:10:58;5.57;;;3.53;;
16593;SDS011;8410;52.532;13.336;2024-02-26T14:13:26;4.77;;;3.40;;
16593;SDS011;8410;52.532;13.336;2024-02-26T14:15:55;6.27;;;3.67;;
16593;SDS011;8410;52.532;13.336;2024-02-26T14:18:22;6.23;;;4.10;;
16593;SDS011;8410;52.532;13.336;2024-02-26T14:20:50;7.30;;;4.10;;
16593;SDS011;8410;52.532;13.336;2024-02-26T14:23:18;5.87;;;4.50;;
16593;SDS011;8410;52.532;13.336;2024-02-26T14:25:46;4.80;;;3.83;;
16593;SDS011;8410;52.532;13.336;2024-02-26T14:28:13;5.73;;;4.27;;
16593;SDS011;8410;52.532;13.336;2024-02-26T14:30:50;5.50;;;4.80;;
16593;SDS011;8410;52.532;13.336;2024-02-26T14:33:19;5.80;;;4.97;;
16593;SDS011;8410;52.532;13.336;2024-02-26T14:35:47;6.20;;;4.67;;